createdAt,value
2019-03-24T00:03:47.607Z,24
2019-03-24T00:13:46.824Z,24
2019-03-24T00:25:37.227Z,24
2019-03-24T00:35:36.442Z,24
2019-03-24T00:45:36.932Z,24
2019-03-24T00:55:34.875Z,24
2019-03-24T01:05:34.091Z,24
2019-03-24T01:15:33.305Z,23.9
2019-03-24T01:25:32.586Z,23.9
2019-03-24T01:35:31.902Z,23.9
2019-03-24T01:45:31.221Z,23.9
2019-03-24T01:55:30.538Z,23.8
2019-03-24T02:05:29.860Z,23.8
2019-03-24T02:15:29.176Z,23.8
2019-03-24T02:25:28.391Z,23.8
2019-03-24T02:35:27.608Z,23.8
2019-03-24T02:45:26.821Z,23.8
2019-03-24T02:58:08.948Z,23.8
2019-03-24T03:08:08.165Z,23.8
2019-03-24T03:18:07.377Z,23.8
2019-03-24T03:28:06.591Z,23.8
2019-03-24T03:38:05.806Z,23.8
2019-03-24T03:45:48.925Z,23.8
2019-03-24T03:55:48.138Z,23.8
2019-03-24T04:10:47.329Z,23.8
2019-03-24T04:20:46.536Z,23.8
2019-03-24T04:30:45.751Z,23.7
2019-03-24T04:40:44.970Z,23.7
2019-03-24T04:50:44.175Z,23.7
2019-03-24T05:00:43.390Z,23.7
2019-03-24T05:10:42.677Z,23.7
2019-03-24T05:20:41.992Z,23.7
2019-03-24T05:30:41.311Z,23.7
2019-03-24T05:40:40.629Z,23.7
2019-03-24T05:50:39.949Z,23.7
2019-03-24T06:00:39.263Z,23.6
2019-03-24T06:10:38.478Z,23.7
2019-03-24T06:20:37.698Z,23.9
2019-03-24T06:30:36.910Z,24.1
2019-03-24T06:36:50.048Z,24.3
2019-03-24T06:46:49.263Z,24.3
2019-03-24T06:56:48.479Z,24.4
2019-03-24T07:07:10.024Z,24.5
2019-03-24T07:17:09.230Z,24.6
2019-03-24T07:27:08.446Z,24.8
2019-03-24T07:37:07.661Z,24.9
2019-03-24T07:47:06.883Z,25.1
2019-03-24T07:57:06.095Z,25.3
2019-03-24T08:07:05.489Z,25.4
2019-03-24T08:17:04.709Z,25.6
2019-03-24T08:27:04.033Z,25.8
2019-03-24T08:37:03.353Z,25.8
2019-03-24T08:47:02.675Z,25.8
2019-03-24T08:57:01.999Z,25.9
2019-03-24T09:07:01.213Z,25.9
2019-03-24T09:17:00.434Z,25.8
2019-03-24T09:26:59.651Z,25.8
2019-03-24T09:36:58.869Z,25.8
2019-03-24T09:46:58.088Z,25.9
2019-03-24T09:56:57.307Z,25.9
2019-03-24T10:06:56.525Z,26
2019-03-24T10:16:55.853Z,25.9
2019-03-24T10:26:54.963Z,25.7
2019-03-24T10:41:45.552Z,25.1
2019-03-24T10:51:44.768Z,24.7
2019-03-24T11:01:43.987Z,24.3
2019-03-24T11:11:43.206Z,24.2
2019-03-24T11:21:42.423Z,24.2
2019-03-24T11:31:41.641Z,24.2
2019-03-24T11:41:40.938Z,24.1
2019-03-24T11:51:40.261Z,24.1
2019-03-24T12:01:39.594Z,24.1
2019-03-24T12:11:38.902Z,24.1
2019-03-24T12:21:38.223Z,24.3
2019-03-24T12:31:37.544Z,24.3
2019-03-24T12:41:36.762Z,24.4
2019-03-24T12:51:35.979Z,24.4
2019-03-24T13:01:35.203Z,24.4
2019-03-24T13:11:34.415Z,24.4
2019-03-24T13:21:33.630Z,24.5
2019-03-24T13:28:24.048Z,24.5
2019-03-24T13:38:23.256Z,24.5
2019-03-24T13:45:57.579Z,24.6
2019-03-24T13:57:57.790Z,24.4
2019-03-24T14:07:57.008Z,24.4
2019-03-24T14:17:56.228Z,24.3
2019-03-24T14:27:55.448Z,24.3
2019-03-24T14:37:54.662Z,24.2
2019-03-24T14:47:53.879Z,24.2
2019-03-24T14:57:53.169Z,24.2
2019-03-24T15:07:52.496Z,24.1
2019-03-24T15:17:51.822Z,24.1
2019-03-24T15:25:40.556Z,24.1
2019-03-24T15:35:39.765Z,24.1
2019-03-24T15:45:38.987Z,24
2019-03-24T15:55:38.206Z,24
2019-03-24T16:05:37.423Z,24
2019-03-24T16:15:36.637Z,23.9
2019-03-24T16:25:35.917Z,23.9
2019-03-24T16:31:33.697Z,23.9
2019-03-24T16:41:32.914Z,23.9
2019-03-24T16:51:38.341Z,23.9
2019-03-24T16:57:00.582Z,23.9
2019-03-24T17:06:59.838Z,23.9
2019-03-24T17:16:59.018Z,23.9
2019-03-24T17:26:58.236Z,23.9
2019-03-24T17:36:57.965Z,23.9
2019-03-24T17:46:56.670Z,24
2019-03-24T17:56:55.963Z,24
2019-03-24T18:06:55.287Z,23.9
2019-03-24T18:16:54.608Z,24
2019-03-24T18:26:53.930Z,23.9
2019-03-24T18:36:53.254Z,23.9
2019-03-24T18:46:52.574Z,23.9
2019-03-24T18:56:51.825Z,23.9
2019-03-24T19:06:51.010Z,23.9
2019-03-24T19:16:50.250Z,24.1
2019-03-24T19:26:49.450Z,24.3
2019-03-24T19:36:48.665Z,24.3
2019-03-24T19:46:47.884Z,24.3
2019-03-24T19:56:47.102Z,24.3
2019-03-24T20:06:46.321Z,24.3
2019-03-24T20:16:45.541Z,24.4
2019-03-24T20:26:44.758Z,24.4
2019-03-24T20:36:43.976Z,24.4
2019-03-24T20:46:43.196Z,24.4
2019-03-24T20:56:42.414Z,24.4
2019-03-24T21:06:41.633Z,24.4
2019-03-24T21:16:40.854Z,24.4
2019-03-24T21:26:40.070Z,24.4
2019-03-24T21:36:39.290Z,24.4
2019-03-24T21:51:18.432Z,24.3
2019-03-24T22:03:39.848Z,24.3
2019-03-24T22:13:39.066Z,24.4
2019-03-24T22:23:38.283Z,24.3
2019-03-24T22:37:39.896Z,24.3
2019-03-24T22:48:35.350Z,24.3
2019-03-24T22:58:34.564Z,24.3
2019-03-24T23:08:33.781Z,24.3
2019-03-24T23:18:32.998Z,24.3
2019-03-24T23:28:32.213Z,24.3
2019-03-24T23:38:31.429Z,24.2
2019-03-24T23:48:30.707Z,24.2
2019-03-24T23:58:40.161Z,24.2
